Warriormine, WV (24894)

8:17 AM EDT on October 01, 2014 (GMT -0400)
Tazewell County | Change Station
CLOSE
Current Station
Airport
Location: Richlands,
Elevation: 808 m
Nearby Weather Stations

Elev 808 m 37.06 °N, 81.80 °W | Updated 22 minutes ago

Mostly Cloudy
Mostly Cloudy
16 °C
Feels Like 16 °C
N
6
Wind Variable Wind from SSE

Today
High -- | Low -- °C
--% Chance of Precip.
Yesterday
High -- | Low -- °C
Precip. -- mm
7:22 AM 7:10 PM
Waxing Crescent, 47% visible
Pressure 1018 hPa
Visibility 16.1 kilometers
Clouds Clear
Dew Point 12 °C
Humidity 75%
Rainfall 0.0 mm
Snow Depth Not available.
UV 0 out of 12
Pollen 3.50 out of 12
Air Quality Not available.
Flu Activity Not available.
METAR KJFZ 011155Z AUTO 16003KT 10SM CLR 16/12 A3005 RMK AO2 T01610117 10169 20142

More Conditions Fewer Conditions

Pressure 1018 hPa
Visibility 16.1 kilometers
Clouds Clear
Dew Point 12 °C
Humidity 75%
Rainfall 0.0 mm
Snow Depth Not available.
UV 0 out of 12
Pollen 3.50 out of 12
Air Quality Not available.
Flu Activity Not available.
METAR KJFZ 011155Z AUTO 16003KT 10SM CLR 16/12 A3005 RMK AO2 T01610117 10169 20142

More Conditions Fewer Conditions

10-Day Weather Forecast

Almanac

Astronomy

Oct. 01, 2014 Rise Set
Actual Time 7:22 AM EDT 7:10 PM EDT
Civil Twilight 6:56 AM EDT 7:35 PM EDT
Nautical Twilight 6:25 AM EDT 8:06 PM EDT
Astronomical Twilight 5:55 AM EDT 8:36 PM EDT
Moon 2:16 PM EDT No Moon Set
Length of Visible Light 12h 39m
Length of Day
11h 47m
Tomorrow will be 2m 22s shorter.
Waxing Crescent, 47% of the Moon is Illuminated
Today
Waxing Crescent
Oct 1
First Quarter
Oct 8
Full
Oct 15
Last Quarter
Oct 23
New

Today's Extremes

State Highs State Lows

Community

WunderPhotos

Upload Photos

1,757,914 photos uploaded!

Nearby

Snow Depth

Station Depth Elevation
No new snow has been reported.

Earthquake Activity

City Distance Mag. Time & Date
No recent earthquake activity has been reported nearby.
Minimum magnitude displayed is 2.5.

Coastal Water Temperatures

Place Temperature
No Stations Reporting

Nearby Weather Stations